Time;durP1;ratioP1;P1;durP2;ratioP2;P2;SDS_P1;SDS_P2;PMS_P1;PMS_P2;Temp;Humidity;BMP_temperature;BMP_pressure;BME280_temperature;BME280_humidity;BME280_pressure;Samples;Min_cycle;Max_cycle;Signal;HPM_P1;HPM_P2
2022/09/13 00:04:19;;;;;;;5.50;3.00;;;22.80;67.80;;;;;;220743;1265;25490;-48
2022/09/13 00:09:23;;;;;;;3.60;2.50;;;22.80;67.70;;;;;;221294;1264;24306;-48
2022/09/13 00:14:27;;;;;;;5.30;2.90;;;22.80;67.60;;;;;;220892;1265;24896;-48
2022/09/13 00:19:31;;;;;;;3.90;2.80;;;22.80;67.40;;;;;;220710;1265;22622;-51
2022/09/13 00:24:36;;;;;;;5.20;2.60;;;22.80;67.40;;;;;;220798;1265;22616;-49
2022/09/13 00:29:41;;;;;;;4.20;2.50;;;22.80;67.60;;;;;;220967;1265;22537;-50
2022/09/13 00:34:44;;;;;;;4.00;2.40;;;22.70;67.40;;;;;;220818;1265;24694;-47
2022/09/13 00:39:48;;;;;;;3.90;2.80;;;22.70;67.50;;;;;;220463;1265;24290;-46
2022/09/13 00:45:02;;;;;;;4.50;2.60;;;22.70;67.80;;;;;;220584;1264;23590;-48
2022/09/13 00:50:43;;;;;;;3.70;2.50;;;22.70;67.40;;;;;;220774;1265;26611;-47
2022/09/13 00:56:10;;;;;;;3.20;2.40;;;22.70;68.20;;;;;;220948;1265;25225;-48
2022/09/13 01:01:22;;;;;;;4.20;2.60;;;22.70;67.50;;;;;;220821;1265;24418;-47
2022/09/13 01:06:32;;;;;;;3.60;2.50;;;22.70;67.50;;;;;;220677;1265;22512;-44
2022/09/13 01:11:47;;;;;;;4.50;2.50;;;22.70;67.50;;;;;;221111;1265;22526;-50
2022/09/13 01:16:52;;;;;;;3.70;2.20;;;22.70;67.50;;;;;;219634;1265;1774140;-46
2022/09/13 01:22:24;;;;;;;4.10;2.50;;;22.70;67.50;;;;;;220910;1265;22733;-47
2022/09/13 01:27:53;;;;;;;4.90;2.80;;;22.70;67.50;;;;;;220810;1268;26758;-46
2022/09/13 01:33:01;;;;;;;4.90;2.30;;;22.70;67.60;;;;;;220718;1265;24823;-47
2022/09/13 01:38:47;;;;;;;3.30;2.20;;;22.70;67.60;;;;;;220852;1264;22672;-49
2022/09/13 01:43:56;;;;;;;5.20;2.40;;;22.70;67.60;;;;;;221020;1265;25445;-48
2022/09/13 01:49:19;;;;;;;5.00;2.70;;;22.60;67.50;;;;;;220492;1265;22595;-47
2022/09/13 01:54:49;;;;;;;6.30;3.00;;;22.70;67.50;;;;;;220928;1265;25348;-46
2022/09/13 02:00:03;;;;;;;3.90;2.40;;;22.60;67.70;;;;;;220969;1265;22545;-48
2022/09/13 02:05:44;;;;;;;5.40;2.50;;;22.60;67.40;;;;;;220626;1265;22623;-50
2022/09/13 02:10:58;;;;;;;4.40;2.40;;;22.60;67.50;;;;;;220892;1265;25356;-47
2022/09/13 02:16:10;;;;;;;4.20;2.40;;;22.60;67.40;;;;;;220867;1265;22550;-47
2022/09/13 02:21:22;;;;;;;3.40;2.30;;;22.60;67.50;;;;;;220616;1267;22570;-48
2022/09/13 02:26:36;;;;;;;3.80;2.40;;;22.60;67.60;;;;;;220946;1265;22559;-46
2022/09/13 02:31:48;;;;;;;4.40;2.50;;;22.60;67.60;;;;;;220907;1265;25711;-49
2022/09/13 02:36:56;;;;;;;3.00;2.20;;;22.60;67.60;;;;;;220977;1267;26590;-48
2022/09/13 02:42:46;;;;;;;3.40;2.20;;;22.50;67.40;;;;;;220777;1265;25460;-48
2022/09/13 02:47:58;;;;;;;5.00;2.70;;;22.50;67.50;;;;;;220710;1265;22540;-47
2022/09/13 02:53:17;;;;;;;3.00;2.30;;;22.60;67.50;;;;;;220654;1265;24302;-49
2022/09/13 02:58:59;;;;;;;3.90;2.20;;;22.60;67.50;;;;;;220631;1265;22732;-49
2022/09/13 03:04:17;;;;;;;3.50;2.40;;;22.60;67.60;;;;;;221146;1265;24287;-48
2022/09/13 03:09:31;;;;;;;3.30;2.20;;;22.60;67.50;;;;;;221015;1265;24325;-48
2022/09/13 03:15:15;;;;;;;4.00;2.30;;;22.50;67.40;;;;;;220649;1265;22577;-48
2022/09/13 03:20:42;;;;;;;4.00;2.30;;;22.50;67.50;;;;;;220908;1265;24297;-47
2022/09/13 03:25:49;;;;;;;4.70;2.30;;;22.50;67.50;;;;;;221064;1265;22610;-53
2022/09/13 03:31:20;;;;;;;3.60;2.30;;;22.50;67.50;;;;;;220910;1265;24078;-50
2022/09/13 03:36:43;;;;;;;4.10;2.30;;;22.50;67.80;;;;;;220891;1267;24341;-49
2022/09/13 03:41:57;;;;;;;3.00;2.20;;;22.50;67.40;;;;;;220940;1264;24415;-51
2022/09/13 03:47:09;;;;;;;3.30;2.30;;;22.50;67.40;;;;;;220977;1265;22544;-50
2022/09/13 03:52:13;;;;;;;3.80;2.00;;;22.50;67.50;;;;;;220951;1265;22735;-48
2022/09/13 03:57:22;;;;;;;4.40;2.30;;;22.50;67.50;;;;;;220839;1264;22528;-52
2022/09/13 04:02:26;;;;;;;3.30;2.20;;;22.50;67.50;;;;;;221022;1265;24237;-48
2022/09/13 04:07:30;;;;;;;5.00;2.30;;;22.50;67.80;;;;;;220868;1268;22537;-48
2022/09/13 04:12:37;;;;;;;3.10;2.00;;;22.50;67.40;;;;;;220807;1265;22537;-46
2022/09/13 04:17:41;;;;;;;3.50;2.20;;;22.50;67.40;;;;;;221108;1265;22540;-48
2022/09/13 04:22:53;;;;;;;3.00;1.90;;;22.50;67.50;;;;;;220967;1265;24195;-50
2022/09/13 04:27:59;;;;;;;3.40;2.30;;;22.40;67.40;;;;;;220976;1265;25304;-48
2022/09/13 04:33:02;;;;;;;3.40;2.40;;;22.40;67.70;;;;;;221006;1265;24059;-49
2022/09/13 04:38:07;;;;;;;4.30;2.00;;;22.40;67.70;;;;;;220935;1265;22704;-47
2022/09/13 04:43:11;;;;;;;2.90;1.90;;;22.40;67.30;;;;;;221086;1267;24249;-49
2022/09/13 04:48:15;;;;;;;2.80;2.10;;;22.40;67.30;;;;;;220968;1265;25253;-49
2022/09/13 04:53:22;;;;;;;4.30;2.20;;;22.40;67.30;;;;;;220546;1267;23024;-51
2022/09/13 04:58:26;;;;;;;3.30;2.10;;;22.40;67.30;;;;;;221215;1265;22601;-51
2022/09/13 05:03:31;;;;;;;3.30;2.00;;;22.40;67.40;;;;;;220942;1265;22643;-49
2022/09/13 05:08:35;;;;;;;3.20;2.30;;;22.40;67.60;;;;;;221088;1265;22584;-52
2022/09/13 05:13:41;;;;;;;2.70;1.80;;;22.40;67.30;;;;;;221011;1265;23913;-47
2022/09/13 05:18:45;;;;;;;3.50;2.20;;;22.40;67.60;;;;;;220890;1265;22538;-49
2022/09/13 05:23:50;;;;;;;3.50;2.00;;;22.40;67.30;;;;;;220766;1265;25262;-48
2022/09/13 05:28:54;;;;;;;5.70;1.90;;;22.40;67.40;;;;;;220922;1265;24289;-48
2022/09/13 05:34:07;;;;;;;3.20;1.80;;;22.40;67.10;;;;;;220847;1265;24287;-48
2022/09/13 05:39:16;;;;;;;5.50;1.90;;;22.40;68.00;;;;;;221196;1265;22587;-47
2022/09/13 05:44:40;;;;;;;4.20;2.10;;;22.40;67.90;;;;;;220946;1265;25364;-50
2022/09/13 05:49:43;;;;;;;8.30;2.10;;;22.40;68.80;;;;;;220595;1265;22708;-48
2022/09/13 05:55:08;;;;;;;8.90;2.10;;;22.40;68.50;;;;;;220926;1265;25406;-48
2022/09/13 06:00:15;;;;;;;7.20;2.20;;;22.50;68.70;;;;;;220719;1265;22519;-48
2022/09/13 06:05:26;;;;;;;5.50;2.20;;;22.50;68.80;;;;;;220737;1265;23046;-51
2022/09/13 06:10:34;;;;;;;7.30;2.30;;;22.50;68.80;;;;;;220758;1265;22538;-46
2022/09/13 06:15:37;;;;;;;5.30;3.00;;;22.50;68.70;;;;;;220978;1265;25673;-50
2022/09/13 06:20:46;;;;;;;8.50;2.30;;;22.50;68.60;;;;;;220866;1265;25328;-48
2022/09/13 06:25:57;;;;;;;5.00;2.10;;;22.50;69.00;;;;;;221179;1265;25419;-46
2022/09/13 06:31:07;;;;;;;18.30;2.70;;;22.60;69.00;;;;;;221304;1265;24208;-49
2022/09/13 06:36:21;;;;;;;8.60;3.50;;;22.60;68.40;;;;;;221291;1265;22599;-52
2022/09/13 06:41:28;;;;;;;8.30;3.10;;;22.50;67.80;;;;;;220752;1265;22588;-49
2022/09/13 06:46:33;;;;;;;10.10;3.70;;;22.40;65.40;;;;;;220867;1265;22581;-50
2022/09/13 06:51:37;;;;;;;5.50;2.90;;;22.30;64.60;;;;;;221118;1265;22609;-51
2022/09/13 06:56:40;;;;;;;9.90;3.20;;;22.30;65.00;;;;;;220976;1265;22674;-48
2022/09/13 07:01:44;;;;;;;8.90;3.20;;;22.30;64.40;;;;;;221121;1265;26069;-50
2022/09/13 07:06:49;;;;;;;6.30;3.60;;;22.30;63.70;;;;;;221202;1265;24380;-51
2022/09/13 07:11:55;;;;;;;7.40;3.70;;;22.30;63.40;;;;;;221149;1265;24623;-50
2022/09/13 07:16:59;;;;;;;7.60;3.30;;;22.30;63.80;;;;;;221362;1265;25311;-50
2022/09/13 07:22:03;;;;;;;8.30;3.80;;;22.30;64.30;;;;;;221204;1265;22538;-48
2022/09/13 07:27:07;;;;;;;6.90;3.40;;;22.30;64.00;;;;;;221027;1265;24290;-52
2022/09/13 07:32:10;;;;;;;7.20;3.50;;;22.30;63.80;;;;;;220868;1265;22592;-48
2022/09/13 07:37:14;;;;;;;6.70;3.30;;;22.30;63.90;;;;;;220550;1264;22519;-49
2022/09/13 07:42:17;;;;;;;6.70;3.00;;;22.30;63.30;;;;;;221259;1265;23053;-52
2022/09/13 07:47:21;;;;;;;5.70;2.80;;;22.40;63.90;;;;;;220970;1265;25598;-49
2022/09/13 07:52:24;;;;;;;5.30;2.90;;;22.40;63.10;;;;;;220805;1265;25198;-49
2022/09/13 07:57:28;;;;;;;6.40;3.10;;;22.30;63.00;;;;;;220922;1265;25543;-47
2022/09/13 08:02:32;;;;;;;5.70;3.30;;;22.40;63.20;;;;;;221086;1264;22521;-50
2022/09/13 08:07:35;;;;;;;9.50;3.60;;;22.40;63.00;;;;;;220978;1265;22807;-53
2022/09/13 08:12:42;;;;;;;8.70;3.30;;;22.40;64.60;;;;;;220907;1265;22546;-49
2022/09/13 08:17:46;;;;;;;6.30;3.10;;;22.50;65.60;;;;;;220679;1265;24191;-48
2022/09/13 08:22:49;;;;;;;5.00;3.10;;;22.50;65.20;;;;;;220749;1265;22544;-50
2022/09/13 08:27:53;;;;;;;4.00;2.80;;;22.50;63.60;;;;;;221029;1265;22614;-47
2022/09/13 08:32:56;;;;;;;5.20;3.20;;;22.50;64.50;;;;;;221209;1265;24375;-51
2022/09/13 08:38:00;;;;;;;6.80;3.00;;;22.50;63.40;;;;;;221013;1265;22525;-50
2022/09/13 08:43:17;;;;;;;5.20;3.10;;;22.50;63.90;;;;;;221077;1265;24276;-49
2022/09/13 08:48:29;;;;;;;11.70;3.10;;;22.50;62.90;;;;;;220685;1265;22569;-49
2022/09/13 08:53:44;;;;;;;7.30;3.40;;;22.60;62.90;;;;;;221073;1265;24161;-51
2022/09/13 08:58:59;;;;;;;5.80;3.20;;;22.70;62.50;;;;;;220808;1268;22551;-50
2022/09/13 09:04:26;;;;;;;5.70;3.30;;;22.70;62.40;;;;;;221069;1265;22608;-52
2022/09/13 09:09:36;;;;;;;6.20;3.60;;;22.70;62.50;;;;;;220953;1265;24069;-54
2022/09/13 09:14:45;;;;;;;8.30;4.10;;;22.70;62.20;;;;;;220681;1265;22538;-49
2022/09/13 09:19:54;;;;;;;6.20;3.20;;;22.70;62.80;;;;;;221005;1265;24361;-48
2022/09/13 09:24:59;;;;;;;7.90;3.30;;;22.60;61.70;;;;;;221091;1268;24234;-48
2022/09/13 09:30:05;;;;;;;6.30;3.50;;;22.60;61.90;;;;;;220737;1265;22589;-49
2022/09/13 09:35:37;;;;;;;5.50;3.10;;;22.80;61.80;;;;;;220866;1265;22524;-47
2022/09/13 09:40:40;;;;;;;6.20;3.10;;;22.70;61.70;;;;;;220702;1265;26713;-48
2022/09/13 09:45:45;;;;;;;6.10;3.00;;;22.80;62.70;;;;;;220368;1268;25385;-50
2022/09/13 09:50:53;;;;;;;4.10;2.80;;;22.70;62.20;;;;;;221126;1265;25376;-47
2022/09/13 09:56:23;;;;;;;3.70;2.50;;;22.80;62.60;;;;;;220582;1268;25620;-48
2022/09/13 10:01:37;;;;;;;6.40;3.10;;;22.90;62.10;;;;;;220871;1265;24739;-52
2022/09/13 10:06:42;;;;;;;4.50;3.10;;;22.90;62.00;;;;;;220531;1265;22547;-53
2022/09/13 10:11:52;;;;;;;4.10;3.10;;;22.90;61.90;;;;;;220814;1265;22498;-49
2022/09/13 10:17:24;;;;;;;4.30;2.80;;;22.90;62.00;;;;;;220756;1265;25911;-48
2022/09/13 10:22:31;;;;;;;6.00;3.10;;;22.90;62.50;;;;;;220550;1268;24205;-48
2022/09/13 10:27:41;;;;;;;3.50;2.90;;;22.90;62.20;;;;;;221142;1268;23055;-48
2022/09/13 10:32:55;;;;;;;5.70;3.20;;;22.90;62.30;;;;;;220755;1265;22538;-48
2022/09/13 10:37:59;;;;;;;4.70;2.60;;;22.90;62.40;;;;;;220873;1266;23821;-46
2022/09/13 10:43:14;;;;;;;4.10;2.90;;;22.90;62.60;;;;;;220699;1266;22478;-47
2022/09/13 10:48:19;;;;;;;4.00;3.10;;;22.90;62.80;;;;;;220545;1265;22785;-50
2022/09/13 10:53:34;;;;;;;4.80;3.00;;;22.90;62.80;;;;;;220656;1265;24178;-46
2022/09/13 10:58:38;;;;;;;5.10;3.10;;;23.00;62.80;;;;;;221016;1266;25309;-47
2022/09/13 11:04:19;;;;;;;4.60;2.90;;;23.00;62.90;;;;;;220790;1268;24119;-49
2022/09/13 11:09:38;;;;;;;3.90;3.20;;;23.00;63.70;;;;;;220919;1265;25567;-50
2022/09/13 11:14:48;;;;;;;5.00;2.90;;;23.00;64.00;;;;;;220506;1265;23926;-50
2022/09/13 11:20:06;;;;;;;5.80;3.20;;;23.00;64.20;;;;;;220900;1265;22538;-50
2022/09/13 11:25:43;;;;;;;5.00;3.30;;;23.00;64.60;;;;;;221177;1265;24453;-52
2022/09/13 11:30:49;;;;;;;5.50;3.20;;;23.00;64.10;;;;;;220740;1265;22553;-52
2022/09/13 11:36:29;;;;;;;5.40;3.40;;;23.00;64.60;;;;;;220732;1265;22610;-46
2022/09/13 11:41:33;;;;;;;5.30;3.20;;;23.00;64.40;;;;;;221035;1266;22655;-47
2022/09/13 11:47:11;;;;;;;6.40;3.40;;;22.90;64.20;;;;;;220907;1265;22620;-49
2022/09/13 11:53:00;;;;;;;4.10;3.10;;;22.90;63.50;;;;;;220880;1265;24282;-47
2022/09/13 11:58:13;;;;;;;4.60;3.20;;;22.80;63.70;;;;;;220862;1270;24309;-46
2022/09/13 12:03:25;;;;;;;4.50;3.30;;;22.80;64.50;;;;;;220903;1265;24213;-48
2022/09/13 12:08:45;;;;;;;4.60;3.00;;;22.80;65.20;;;;;;220929;1265;22526;-48
2022/09/13 12:13:52;;;;;;;5.00;3.20;;;22.90;65.60;;;;;;221041;1265;23056;-47
2022/09/13 12:19:04;;;;;;;5.80;3.40;;;22.80;66.00;;;;;;220822;1265;24652;-47
2022/09/13 12:24:23;;;;;;;4.20;3.50;;;22.80;65.60;;;;;;220842;1265;22525;-51
2022/09/13 12:29:39;;;;;;;5.70;3.30;;;22.80;66.90;;;;;;220996;1265;24325;-47
2022/09/13 12:34:53;;;;;;;5.30;3.00;;;22.80;66.30;;;;;;220802;1265;22552;-49
2022/09/13 12:40:08;;;;;;;6.00;3.20;;;22.80;66.30;;;;;;220955;1268;25587;-49
2022/09/13 12:45:38;;;;;;;6.60;3.50;;;22.90;66.80;;;;;;220184;1265;22820;-52
2022/09/13 12:50:55;;;;;;;3.30;2.70;;;22.90;66.80;;;;;;220509;1265;24422;-48
2022/09/13 12:56:36;;;;;;;4.30;3.10;;;22.90;66.90;;;;;;220736;1268;25031;-49
2022/09/13 13:01:44;;;;;;;;;;;23.00;66.90;;;;;;220970;1268;25303;-48
2022/09/13 13:07:17;;;;;;;6.20;3.20;;;22.90;67.10;;;;;;220733;1265;24246;-48
2022/09/13 13:12:26;;;;;;;4.10;3.00;;;22.90;67.20;;;;;;220755;1265;22629;-47
2022/09/13 13:17:50;;;;;;;3.80;3.10;;;23.00;67.30;;;;;;219288;1265;1841947;-50
2022/09/13 13:23:03;;;;;;;4.10;3.20;;;23.00;67.40;;;;;;220429;1268;22701;-48
2022/09/13 13:28:45;;;;;;;5.50;4.00;;;22.90;67.40;;;;;;220862;1265;22546;-54
2022/09/13 13:33:54;;;;;;;6.60;3.30;;;22.90;67.60;;;;;;221029;1265;25458;-47
2022/09/13 13:39:00;;;;;;;3.80;2.90;;;22.90;67.60;;;;;;220581;1270;22560;-47
2022/09/13 13:44:19;;;;;;;5.00;3.40;;;22.90;67.60;;;;;;221061;1268;25370;-46
2022/09/13 13:49:31;;;;;;;4.10;3.20;;;22.90;68.00;;;;;;220854;1268;22690;-46
2022/09/13 13:54:39;;;;;;;4.40;3.50;;;22.90;67.60;;;;;;220684;1269;25314;-48
2022/09/13 13:59:43;;;;;;;5.30;3.30;;;22.90;67.90;;;;;;220915;1265;22557;-49
2022/09/13 14:05:15;;;;;;;4.50;3.60;;;22.90;67.60;;;;;;220884;1266;25392;-50
2022/09/13 14:10:51;;;;;;;4.10;3.40;;;22.80;66.80;;;;;;220410;1268;22530;-48
2022/09/13 14:16:11;;;;;;;5.10;3.80;;;22.80;67.10;;;;;;221008;1265;23948;-48
2022/09/13 14:21:34;;;;;;;4.50;3.50;;;22.80;67.60;;;;;;221114;1265;22540;-51
2022/09/13 14:26:39;;;;;;;5.90;3.60;;;22.90;68.00;;;;;;220224;1268;25363;-49
2022/09/13 14:31:46;;;;;;;5.40;3.40;;;22.90;66.90;;;;;;220943;1265;25514;-49
2022/09/13 14:36:53;;;;;;;4.90;3.70;;;22.80;66.50;;;;;;220854;1268;24215;-48
2022/09/13 14:48:09;;;;;;;3.90;3.40;;;22.80;67.30;;;;;;221021;1268;24389;-50
2022/09/13 14:53:36;;;;;;;3.80;3.30;;;22.90;67.30;;;;;;220752;1265;25522;-48
2022/09/13 14:58:53;;;;;;;7.00;4.20;;;22.80;67.00;;;;;;221107;1265;22744;-50
2022/09/13 15:04:02;;;;;;;4.50;3.70;;;22.80;67.20;;;;;;220887;1266;25285;-51
2022/09/13 15:09:26;;;;;;;8.20;3.50;;;22.80;66.80;;;;;;221068;1265;26487;-49
2022/09/13 15:14:39;;;;;;;6.70;3.20;;;22.90;67.20;;;;;;221264;1265;22756;-49
2022/09/13 15:19:52;;;;;;;10.90;5.60;;;23.00;67.40;;;;;;221220;1265;25456;-49
2022/09/13 15:24:57;;;;;;;13.00;6.70;;;23.00;68.90;;;;;;221347;1265;23051;-49
2022/09/13 15:30:06;;;;;;;14.00;6.90;;;23.00;69.40;;;;;;221249;1264;22798;-49
2022/09/13 15:35:28;;;;;;;16.50;8.50;;;23.00;69.60;;;;;;220780;1265;22550;-49
2022/09/13 15:40:42;;;;;;;8.50;5.80;;;23.00;69.80;;;;;;221332;1265;22817;-50
2022/09/13 15:45:46;;;;;;;8.20;5.20;;;23.00;68.50;;;;;;221612;1265;24287;-52
2022/09/13 15:51:08;;;;;;;9.80;4.90;;;23.00;69.00;;;;;;221175;1265;24312;-50
2022/09/13 15:56:16;;;;;;;7.80;4.60;;;23.00;68.40;;;;;;220806;1265;22633;-53
2022/09/13 16:01:31;;;;;;;7.40;4.70;;;22.90;67.30;;;;;;221355;1265;22653;-49
2022/09/13 16:06:37;;;;;;;10.90;4.90;;;22.90;67.60;;;;;;221086;1265;22547;-48
2022/09/13 16:11:40;;;;;;;8.10;4.50;;;22.90;68.10;;;;;;220898;1265;23304;-50
2022/09/13 16:16:45;;;;;;;8.40;4.10;;;22.70;67.10;;;;;;220980;1265;25581;-48
2022/09/13 16:21:48;;;;;;;7.20;4.00;;;22.80;66.50;;;;;;221574;1265;24348;-52
2022/09/13 16:26:52;;;;;;;7.40;4.10;;;22.70;67.60;;;;;;221042;1265;24209;-51
2022/09/13 16:31:58;;;;;;;8.90;4.00;;;22.80;66.90;;;;;;221183;1265;25301;-52
2022/09/13 16:37:02;;;;;;;9.80;4.20;;;22.80;67.20;;;;;;220622;1265;24443;-46
2022/09/13 16:42:08;;;;;;;7.30;4.10;;;22.90;67.30;;;;;;222004;1265;23927;-50
2022/09/13 16:47:15;;;;;;;6.00;3.60;;;22.80;67.00;;;;;;220848;1265;22603;-50
2022/09/13 16:52:18;;;;;;;8.50;4.20;;;22.80;66.90;;;;;;220989;1265;22534;-47
2022/09/13 16:57:23;;;;;;;7.00;4.20;;;22.80;66.40;;;;;;224611;1265;25389;-48
2022/09/13 17:02:30;;;;;;;7.40;4.10;;;22.70;65.80;;;;;;221219;1265;22545;-50
2022/09/13 17:07:35;;;;;;;8.40;4.30;;;22.70;66.00;;;;;;220934;1265;22596;-47
2022/09/13 17:12:40;;;;;;;5.90;3.70;;;22.70;65.90;;;;;;221248;1265;22592;-50
2022/09/13 17:17:46;;;;;;;5.20;3.90;;;22.60;65.40;;;;;;221118;1265;25320;-49
2022/09/13 17:22:53;;;;;;;9.80;4.10;;;22.70;66.10;;;;;;221198;1265;22648;-49
2022/09/13 17:27:58;;;;;;;6.70;4.30;;;22.70;65.60;;;;;;220919;1265;22823;-48
2022/09/13 17:33:04;;;;;;;5.80;3.80;;;22.60;65.50;;;;;;220805;1265;22554;-49
2022/09/13 17:38:27;;;;;;;5.50;3.70;;;22.50;65.40;;;;;;221064;1268;23935;-47
2022/09/13 17:43:37;;;;;;;5.20;4.00;;;22.50;65.80;;;;;;221209;1265;24058;-49
2022/09/13 17:48:56;;;;;;;5.50;3.90;;;22.50;65.70;;;;;;221101;1269;24272;-51
2022/09/13 17:54:08;;;;;;;4.80;3.70;;;22.50;65.30;;;;;;220651;1265;24277;-48
2022/09/13 17:59:23;;;;;;;5.60;4.10;;;22.40;65.30;;;;;;220776;1265;25491;-50
2022/09/13 18:04:31;;;;;;;7.50;3.70;;;22.40;65.50;;;;;;221207;1265;24240;-51
2022/09/13 18:09:40;;;;;;;4.90;3.80;;;22.40;65.10;;;;;;220525;1265;22916;-50
2022/09/13 18:14:45;;;;;;;4.60;3.70;;;22.40;65.10;;;;;;220703;1265;22801;-46
2022/09/13 18:19:50;;;;;;;5.40;4.10;;;22.40;65.10;;;;;;221072;1265;22544;-47
2022/09/13 18:25:01;;;;;;;7.30;3.90;;;22.40;64.90;;;;;;220608;1265;24392;-51
2022/09/13 18:30:12;;;;;;;5.30;4.00;;;22.40;65.70;;;;;;220956;1265;22707;-49
2022/09/13 18:35:36;;;;;;;6.40;3.80;;;22.40;65.10;;;;;;220567;1265;24272;-51
2022/09/13 18:41:08;;;;;;;5.70;3.80;;;22.40;64.60;;;;;;221311;1265;24230;-49
2022/09/13 18:46:30;;;;;;;7.50;4.20;;;22.50;64.70;;;;;;220600;1265;24379;-47
2022/09/13 18:51:48;;;;;;;9.10;4.10;;;22.50;64.90;;;;;;221324;1265;24520;-50
2022/09/13 18:56:58;;;;;;;12.50;4.60;;;22.50;65.30;;;;;;220748;1265;24214;-50
2022/09/13 19:02:09;;;;;;;7.90;4.30;;;22.50;65.10;;;;;;220649;1265;22534;-51
2022/09/13 19:07:28;;;;;;;10.60;3.80;;;22.60;65.20;;;;;;221023;1265;24211;-49
2022/09/13 19:12:38;;;;;;;18.50;4.50;;;22.70;65.80;;;;;;220892;1265;23117;-50
2022/09/13 19:17:46;;;;;;;13.20;4.10;;;22.80;65.90;;;;;;220782;1268;22597;-48
2022/09/13 19:22:58;;;;;;;;;;;22.80;65.90;;;;;;220868;1265;22535;-48
2022/09/13 19:28:13;;;;;;;14.50;4.80;;;22.80;67.20;;;;;;221017;1265;23615;-49
2022/09/13 19:33:29;;;;;;;8.40;4.70;;;22.90;68.60;;;;;;221021;1265;22547;-51
2022/09/13 19:38:55;;;;;;;7.40;4.50;;;22.90;68.80;;;;;;220978;1265;22548;-50
2022/09/13 19:44:03;;;;;;;11.90;4.90;;;22.90;68.80;;;;;;220887;1265;25499;-48
2022/09/13 19:49:14;;;;;;;14.10;5.50;;;22.90;69.10;;;;;;220779;1265;24354;-47
2022/09/13 19:54:19;;;;;;;8.40;4.30;;;22.90;69.30;;;;;;220841;1265;22482;-49
2022/09/13 19:59:27;;;;;;;9.60;4.60;;;22.90;68.90;;;;;;220760;1265;22640;-48
2022/09/13 20:04:34;;;;;;;6.90;4.10;;;22.90;68.70;;;;;;220901;1264;22536;-50
2022/09/13 20:09:45;;;;;;;8.60;3.80;;;22.90;68.60;;;;;;220393;1265;25269;-50
2022/09/13 20:14:50;;;;;;;8.30;4.10;;;22.80;68.80;;;;;;220543;1265;22605;-50
2022/09/13 20:19:54;;;;;;;8.00;4.40;;;22.80;68.50;;;;;;221019;1265;22616;-52
2022/09/13 20:24:59;;;;;;;6.60;4.10;;;22.80;68.60;;;;;;220786;1265;22677;-53
2022/09/13 20:30:05;;;;;;;11.80;4.40;;;22.80;68.40;;;;;;220982;1265;22541;-53
2022/09/13 20:35:12;;;;;;;11.70;4.20;;;22.80;68.60;;;;;;220491;1265;22525;-50
2022/09/13 20:40:27;;;;;;;7.90;4.00;;;22.80;68.20;;;;;;220988;1265;25339;-52
2022/09/13 20:45:36;;;;;;;6.20;4.40;;;22.80;68.40;;;;;;220665;1265;22550;-54
2022/09/13 20:50:41;;;;;;;7.00;4.30;;;22.80;68.00;;;;;;220263;1268;24215;-55
2022/09/13 20:56:22;;;;;;;8.50;4.10;;;22.80;68.00;;;;;;220981;1265;24345;-53
2022/09/13 21:01:28;;;;;;;6.10;4.10;;;22.80;67.80;;;;;;220738;1265;25174;-54
2022/09/13 21:08:39;;;;;;;7.20;4.40;;;22.80;67.80;;;;;;220695;1265;24240;-49
2022/09/13 21:12:17;;;;;;;4.60;3.70;;;22.80;68.00;;;;;;220730;1265;24257;-50
2022/09/13 21:17:21;;;;;;;5.40;3.90;;;22.80;67.60;;;;;;221155;1265;22547;-49
2022/09/13 21:22:25;;;;;;;9.10;4.10;;;22.80;67.50;;;;;;220845;1265;25638;-46
2022/09/13 21:27:36;;;;;;;7.80;4.60;;;22.70;67.40;;;;;;222840;1265;22532;-47
2022/09/13 21:32:40;;;;;;;10.50;4.30;;;22.70;67.00;;;;;;222288;1265;22811;-49
2022/09/13 21:37:44;;;;;;;5.70;4.30;;;22.70;67.40;;;;;;220870;1265;22539;-51
2022/09/13 21:42:47;;;;;;;7.80;4.30;;;22.70;67.20;;;;;;220509;1265;22541;-48
2022/09/13 21:47:51;;;;;;;8.40;5.20;;;22.70;67.30;;;;;;220630;1265;24203;-54
2022/09/13 21:52:58;;;;;;;7.90;3.90;;;22.70;67.50;;;;;;220630;1265;22697;-51
2022/09/13 21:58:02;;;;;;;7.80;4.50;;;22.70;67.30;;;;;;221021;1265;23193;-49
2022/09/13 22:03:09;;;;;;;9.90;4.10;;;22.70;67.00;;;;;;220594;1265;25610;-48
2022/09/13 22:08:12;;;;;;;6.00;3.80;;;22.70;67.50;;;;;;220962;1265;22666;-50
2022/09/13 22:13:16;;;;;;;5.90;4.00;;;22.70;67.20;;;;;;220443;1265;22528;-49
2022/09/13 22:18:19;;;;;;;8.20;4.30;;;22.70;67.10;;;;;;220958;1265;25466;-49
2022/09/13 22:23:23;;;;;;;7.10;3.90;;;22.70;67.20;;;;;;220884;1265;22564;-52
2022/09/13 22:28:27;;;;;;;6.10;4.30;;;22.60;67.40;;;;;;221090;1265;22547;-51
2022/09/13 22:33:36;;;;;;;6.40;3.90;;;22.70;67.00;;;;;;220929;1265;24208;-49
2022/09/13 22:38:43;;;;;;;7.20;4.30;;;22.60;67.20;;;;;;221001;1265;24322;-51
2022/09/13 22:43:48;;;;;;;6.20;4.10;;;22.60;67.10;;;;;;220540;1265;25721;-53
2022/09/13 22:48:55;;;;;;;9.20;4.50;;;22.60;67.50;;;;;;220594;1267;22854;-51
2022/09/13 22:54:09;;;;;;;6.40;3.80;;;22.60;67.20;;;;;;220875;1265;26481;-51
2022/09/13 22:59:19;;;;;;;8.40;4.80;;;22.60;67.80;;;;;;220541;1265;22611;-53
2022/09/13 23:04:25;;;;;;;5.10;3.30;;;22.70;67.30;;;;;;220842;1265;22621;-53
2022/09/13 23:09:29;;;;;;;7.00;3.90;;;22.70;67.30;;;;;;220941;1265;25608;-54
2022/09/13 23:14:37;;;;;;;8.30;4.20;;;22.70;67.90;;;;;;220946;1264;24077;-55
2022/09/13 23:19:44;;;;;;;5.60;4.20;;;22.70;68.00;;;;;;221048;1265;23426;-52
2022/09/13 23:24:48;;;;;;;4.40;3.50;;;22.60;67.40;;;;;;220713;1265;22591;-49
2022/09/13 23:29:54;;;;;;;6.00;4.10;;;22.60;67.50;;;;;;221045;1265;22568;-48
2022/09/13 23:34:59;;;;;;;6.10;4.10;;;22.70;67.60;;;;;;220991;1265;22604;-50
2022/09/13 23:40:06;;;;;;;6.40;3.90;;;22.60;67.60;;;;;;221226;1265;24407;-49
2022/09/13 23:45:13;;;;;;;5.50;4.00;;;22.60;67.60;;;;;;221036;1265;24239;-50
2022/09/13 23:50:23;;;;;;;8.10;4.10;;;22.60;67.70;;;;;;221324;1265;23920;-49
2022/09/13 23:55:33;;;;;;;6.70;4.10;;;22.60;68.00;;;;;;221030;1265;24468;-50
